createdAt,value
2023-04-26T00:01:55.679Z,9.37
2023-04-26T00:04:29.799Z,9.35
2023-04-26T00:07:04.464Z,9.34
2023-04-26T00:09:37.456Z,9.32
2023-04-26T00:12:12.251Z,9.30
2023-04-26T00:14:45.500Z,9.29
2023-04-26T00:17:18.324Z,9.30
2023-04-26T00:19:51.524Z,9.31
2023-04-26T00:22:25.837Z,9.30
2023-04-26T00:24:58.800Z,9.25
2023-04-26T00:27:32.084Z,9.21
2023-04-26T00:30:05.777Z,9.20
2023-04-26T00:32:38.805Z,9.24
2023-04-26T00:35:13.177Z,9.26
2023-04-26T00:37:46.621Z,9.27
2023-04-26T00:40:21.047Z,9.30
2023-04-26T00:43:01.360Z,9.32
2023-04-26T00:45:35.332Z,9.31
2023-04-26T00:48:08.778Z,9.31
2023-04-26T00:50:41.659Z,9.30
2023-04-26T00:53:15.898Z,9.26
2023-04-26T00:55:49.492Z,9.24
2023-04-26T00:58:22.472Z,9.26
2023-04-26T01:00:55.740Z,9.28
2023-04-26T01:03:29.018Z,9.25
2023-04-26T01:06:02.198Z,9.21
2023-04-26T01:08:35.279Z,9.21
2023-04-26T01:11:08.629Z,9.20
2023-04-26T01:13:42.561Z,9.17
2023-04-26T01:16:16.567Z,9.15
2023-04-26T01:18:55.676Z,9.15
2023-04-26T01:21:28.822Z,9.15
2023-04-26T01:24:02.054Z,9.12
2023-04-26T01:26:35.745Z,9.09
2023-04-26T01:29:17.446Z,9.07
2023-04-26T01:31:50.655Z,9.05
2023-04-26T01:34:23.602Z,9.08
2023-04-26T01:36:57.121Z,9.05
2023-04-26T01:39:30.188Z,9.04
2023-04-26T01:42:03.406Z,9.02
2023-04-26T01:44:37.774Z,9.01
2023-04-26T01:47:11.416Z,8.97
2023-04-26T01:49:44.392Z,8.99
2023-04-26T01:52:18.851Z,9.00
2023-04-26T01:54:51.886Z,9.02
2023-04-26T01:57:25.771Z,9.00
2023-04-26T01:59:59.755Z,8.95
2023-04-26T02:02:33.192Z,8.88
2023-04-26T02:05:06.551Z,8.85
2023-04-26T02:07:40.158Z,8.83
2023-04-26T02:10:13.490Z,8.83
2023-04-26T02:12:46.308Z,8.82
2023-04-26T02:15:19.560Z,8.79
2023-04-26T02:17:53.990Z,8.76
2023-04-26T02:20:27.101Z,8.74
2023-04-26T02:23:00.090Z,8.75
2023-04-26T02:25:33.591Z,8.77
2023-04-26T02:28:07.431Z,8.76
2023-04-26T02:30:40.393Z,8.74
2023-04-26T02:33:13.496Z,8.73
2023-04-26T02:35:46.589Z,8.72
2023-04-26T02:38:20.004Z,8.73
2023-04-26T02:40:54.757Z,8.72
2023-04-26T02:43:28.013Z,8.71
2023-04-26T02:46:01.601Z,8.70
2023-04-26T02:48:35.856Z,8.71
2023-04-26T02:51:09.105Z,8.68
2023-04-26T02:53:42.100Z,8.65
2023-04-26T02:56:14.905Z,8.63
2023-04-26T02:58:48.277Z,8.63
2023-04-26T03:01:21.487Z,8.64
2023-04-26T03:03:55.753Z,8.67
2023-04-26T03:06:30.142Z,8.72
2023-04-26T03:09:03.381Z,8.74
2023-04-26T03:11:37.335Z,8.76
2023-04-26T03:14:10.716Z,8.82
2023-04-26T03:16:45.910Z,8.91
2023-04-26T03:19:19.011Z,9.04
2023-04-26T03:21:52.532Z,9.15
2023-04-26T03:24:25.517Z,9.22
2023-04-26T03:26:58.688Z,9.27
2023-04-26T03:29:31.950Z,9.35
2023-04-26T03:32:07.454Z,9.49
2023-04-26T03:34:41.544Z,9.67
2023-04-26T03:37:15.491Z,10.00
2023-04-26T03:39:51.378Z,10.00
2023-04-26T03:42:25.415Z,10.24
2023-04-26T03:44:59.391Z,10.43
2023-04-26T03:47:32.986Z,10.56
2023-04-26T03:50:07.935Z,10.66
2023-04-26T03:52:40.896Z,10.80
2023-04-26T03:55:14.052Z,10.99
2023-04-26T03:57:47.618Z,11.16
2023-04-26T04:00:20.782Z,11.30
2023-04-26T04:02:54.460Z,11.43
2023-04-26T04:05:29.141Z,11.48
2023-04-26T04:08:03.258Z,11.54
2023-04-26T04:10:38.395Z,11.55
2023-04-26T04:13:11.666Z,11.53
2023-04-26T04:15:44.941Z,11.50
2023-04-26T04:18:18.296Z,11.44
2023-04-26T04:20:52.298Z,11.41
2023-04-26T04:23:25.379Z,11.34
2023-04-26T04:26:00.193Z,11.26
2023-04-26T04:28:34.704Z,11.21
2023-04-26T04:31:09.420Z,11.23
2023-04-26T04:33:42.430Z,11.24
2023-04-26T04:36:20.317Z,11.29
2023-04-26T04:38:54.059Z,11.37
2023-04-26T04:41:28.187Z,11.43
2023-04-26T04:44:02.097Z,11.46
2023-04-26T04:46:35.297Z,11.44
2023-04-26T04:49:09.805Z,11.41
2023-04-26T04:51:43.124Z,11.43
2023-04-26T04:54:18.923Z,11.49
2023-04-26T04:56:52.606Z,11.56
2023-04-26T04:59:26.345Z,11.65
2023-04-26T05:01:59.422Z,11.74
2023-04-26T05:04:34.852Z,11.84
2023-04-26T05:07:08.281Z,11.94
2023-04-26T05:09:42.322Z,12.03
2023-04-26T05:12:16.204Z,12.07
2023-04-26T05:14:49.353Z,12.16
2023-04-26T05:17:22.638Z,12.24
2023-04-26T05:19:56.372Z,12.35
2023-04-26T05:22:29.746Z,12.44
2023-04-26T05:25:02.970Z,12.51
2023-04-26T05:27:37.710Z,12.53
2023-04-26T05:30:27.693Z,12.59
2023-04-26T05:33:11.528Z,12.68
2023-04-26T05:35:54.466Z,12.78
2023-04-26T05:38:27.809Z,12.87
2023-04-26T05:41:02.668Z,12.94
2023-04-26T05:43:36.752Z,13.01
2023-04-26T05:46:10.530Z,13.08
2023-04-26T05:48:43.824Z,13.15
2023-04-26T05:51:17.817Z,13.21
2023-04-26T05:53:51.355Z,13.25
2023-04-26T05:56:27.001Z,13.31
2023-04-26T05:59:00.998Z,13.38
2023-04-26T06:01:33.779Z,13.47
2023-04-26T06:04:07.972Z,13.53
2023-04-26T06:06:43.324Z,13.60
2023-04-26T06:09:18.406Z,13.69
2023-04-26T06:11:50.886Z,13.75
2023-04-26T06:16:59.239Z,13.90
2023-04-26T06:19:32.083Z,13.98
2023-04-26T06:22:05.178Z,14.07
2023-04-26T06:24:39.121Z,14.28
2023-04-26T06:27:12.201Z,14.28
2023-04-26T06:29:46.762Z,14.36
2023-04-26T06:32:19.963Z,14.44
2023-04-26T06:34:53.465Z,14.53
2023-04-26T06:37:26.602Z,14.59
2023-04-26T06:40:00.066Z,14.69
2023-04-26T06:42:33.485Z,14.73
2023-04-26T06:45:19.244Z,14.80
2023-04-26T06:47:54.255Z,14.86
2023-04-26T06:50:28.797Z,14.91
2023-04-26T06:53:01.961Z,14.95
2023-04-26T06:55:35.473Z,14.98
2023-04-26T06:58:08.492Z,15.00
2023-04-26T07:00:41.457Z,15.06
2023-04-26T07:03:14.674Z,15.15
2023-04-26T07:05:47.772Z,15.24
2023-04-26T07:08:21.536Z,15.30
2023-04-26T07:10:55.643Z,15.33
2023-04-26T07:13:28.473Z,15.39
2023-04-26T07:16:01.461Z,15.43
2023-04-26T07:18:34.808Z,15.48
2023-04-26T07:21:08.543Z,15.51
2023-04-26T07:23:41.602Z,15.58
2023-04-26T07:26:14.605Z,15.63
2023-04-26T07:28:47.518Z,15.70
2023-04-26T07:31:21.568Z,15.75
2023-04-26T07:33:54.578Z,15.76
2023-04-26T07:36:28.158Z,15.81
2023-04-26T07:39:01.313Z,15.89
2023-04-26T07:41:34.471Z,15.88
2023-04-26T07:44:07.923Z,15.87
2023-04-26T07:46:41.310Z,15.90
2023-04-26T07:49:14.642Z,15.95
2023-04-26T07:51:47.824Z,16.00
2023-04-26T07:54:20.713Z,16.04
2023-04-26T07:56:54.875Z,16.08
2023-04-26T07:59:27.837Z,16.12
2023-04-26T08:02:01.058Z,16.16
2023-04-26T08:04:35.614Z,16.21
2023-04-26T08:07:08.769Z,16.24
2023-04-26T08:09:41.855Z,16.28
2023-04-26T08:12:15.152Z,16.34
2023-04-26T08:14:48.340Z,16.40
2023-04-26T08:17:21.170Z,16.43
2023-04-26T08:19:54.200Z,16.44
2023-04-26T08:22:27.582Z,16.48
2023-04-26T08:25:00.319Z,16.51
2023-04-26T08:27:34.972Z,16.49
2023-04-26T08:30:09.155Z,16.49
2023-04-26T08:32:42.488Z,16.49
2023-04-26T08:35:15.599Z,16.55
2023-04-26T08:37:48.698Z,16.60
2023-04-26T08:40:25.161Z,16.68
2023-04-26T08:42:58.240Z,16.72
2023-04-26T08:45:31.265Z,16.76
2023-04-26T08:48:11.427Z,16.77
2023-04-26T08:50:49.319Z,16.83
2023-04-26T08:53:22.869Z,16.88
2023-04-26T08:55:55.915Z,16.95
2023-04-26T08:58:29.297Z,17.00
2023-04-26T09:01:02.454Z,17.06
2023-04-26T09:03:36.028Z,17.08
2023-04-26T09:06:09.535Z,17.14
2023-04-26T09:08:44.411Z,17.20
2023-04-26T09:11:17.431Z,17.19
2023-04-26T09:13:50.966Z,17.18
2023-04-26T09:16:37.179Z,17.16
2023-04-26T09:19:10.121Z,17.15
2023-04-26T09:21:48.315Z,17.14
2023-04-26T09:24:21.119Z,17.16
2023-04-26T09:27:06.241Z,17.24
2023-04-26T09:29:39.892Z,17.25
2023-04-26T09:32:13.136Z,17.26
2023-04-26T09:34:48.564Z,17.27
2023-04-26T09:37:21.426Z,17.28
2023-04-26T09:39:54.428Z,17.30
2023-04-26T09:42:27.546Z,17.36
2023-04-26T09:45:07.505Z,17.38
2023-04-26T09:47:41.461Z,17.39
2023-04-26T09:50:14.480Z,17.43
2023-04-26T09:52:47.412Z,17.46
2023-04-26T09:55:35.453Z,17.52
2023-04-26T09:58:13.261Z,17.54
2023-04-26T10:00:46.541Z,17.56
2023-04-26T10:03:21.705Z,17.58
2023-04-26T10:05:55.450Z,17.60
2023-04-26T10:08:28.441Z,17.57
2023-04-26T10:11:05.365Z,17.57
2023-04-26T10:13:38.326Z,17.62
2023-04-26T10:16:11.972Z,17.63
2023-04-26T10:18:44.824Z,17.64
2023-04-26T10:21:31.780Z,17.65
2023-04-26T10:24:05.744Z,17.68
2023-04-26T10:26:58.181Z,17.69
2023-04-26T10:29:59.695Z,17.68
2023-04-26T10:32:33.499Z,17.69
2023-04-26T10:35:15.934Z,17.70
2023-04-26T10:38:08.567Z,17.71
2023-04-26T10:40:42.432Z,17.73
2023-04-26T10:43:20.060Z,17.75
2023-04-26T10:45:53.072Z,17.76
2023-04-26T10:48:33.631Z,17.74
2023-04-26T10:51:12.800Z,17.76
2023-04-26T10:53:56.626Z,17.76
2023-04-26T10:56:36.991Z,17.77
2023-04-26T10:59:33.197Z,17.78
2023-04-26T11:01:48.823Z,17.82
2023-04-26T11:04:22.182Z,17.87
2023-04-26T11:06:58.703Z,17.93
2023-04-26T11:09:51.135Z,17.96
2023-04-26T11:12:24.690Z,17.98
2023-04-26T11:14:57.651Z,18.01
2023-04-26T11:17:30.740Z,18.03
2023-04-26T11:20:08.545Z,18.07
2023-04-26T11:22:44.549Z,18.10
2023-04-26T11:25:17.613Z,18.13
2023-04-26T11:27:50.553Z,18.16
2023-04-26T11:30:23.596Z,18.19
2023-04-26T11:32:58.231Z,18.23
2023-04-26T11:35:31.967Z,18.25
2023-04-26T11:38:06.808Z,18.29
2023-04-26T11:40:39.870Z,18.35
2023-04-26T11:43:15.837Z,18.38
2023-04-26T11:45:48.955Z,18.39
2023-04-26T11:48:22.410Z,18.39
2023-04-26T11:50:55.628Z,18.38
2023-04-26T11:53:39.605Z,18.39
2023-04-26T11:56:23.367Z,18.41
2023-04-26T11:58:57.953Z,18.42
2023-04-26T12:01:32.192Z,18.44
2023-04-26T12:04:05.396Z,18.45
2023-04-26T12:06:47.293Z,18.47
2023-04-26T12:09:26.975Z,18.43
2023-04-26T12:12:01.264Z,18.43
2023-04-26T12:14:37.668Z,18.43
2023-04-26T12:17:10.788Z,18.42
2023-04-26T12:19:44.383Z,18.42
2023-04-26T12:22:22.486Z,18.44
2023-04-26T12:24:59.934Z,18.45
2023-04-26T12:27:33.239Z,18.45
2023-04-26T12:30:08.259Z,18.48
2023-04-26T12:32:42.281Z,18.55
2023-04-26T12:35:15.354Z,18.61
2023-04-26T12:37:50.124Z,18.65
2023-04-26T12:40:24.518Z,18.67
2023-04-26T12:42:58.157Z,18.68
2023-04-26T12:45:31.537Z,18.70
2023-04-26T12:48:06.825Z,18.71
2023-04-26T12:50:39.978Z,18.73
2023-04-26T12:53:13.030Z,18.76
2023-04-26T12:55:47.013Z,18.82
2023-04-26T12:58:20.346Z,18.89
2023-04-26T13:00:53.677Z,18.90
2023-04-26T13:03:26.834Z,18.91
2023-04-26T13:06:00.233Z,18.88
2023-04-26T13:08:33.450Z,18.89
2023-04-26T13:11:06.810Z,18.90
2023-04-26T13:13:44.409Z,18.90
2023-04-26T13:16:15.319Z,18.91
2023-04-26T13:18:48.269Z,18.91
2023-04-26T13:21:21.088Z,18.92
2023-04-26T13:23:54.031Z,18.93
2023-04-26T13:26:27.968Z,18.94
2023-04-26T13:29:01.091Z,18.95
2023-04-26T13:31:34.895Z,18.97
2023-04-26T13:34:08.107Z,18.98
2023-04-26T13:36:42.741Z,19.00
2023-04-26T13:39:16.824Z,19.01
2023-04-26T13:41:50.367Z,19.01
2023-04-26T13:44:23.421Z,19.02
2023-04-26T13:46:57.602Z,19.02
2023-04-26T13:49:30.790Z,19.05
2023-04-26T13:52:03.994Z,19.03
2023-04-26T13:54:37.198Z,19.04
2023-04-26T13:57:09.822Z,19.06
2023-04-26T13:59:42.650Z,19.07
2023-04-26T14:02:15.914Z,19.08
2023-04-26T14:04:49.540Z,19.08
2023-04-26T14:07:23.354Z,19.08
2023-04-26T14:09:56.432Z,19.07
2023-04-26T14:12:30.874Z,19.07
2023-04-26T14:15:06.067Z,19.05
2023-04-26T14:17:39.343Z,19.02
2023-04-26T14:20:13.077Z,19.00
2023-04-26T14:22:45.915Z,18.98
2023-04-26T14:25:19.237Z,18.98
2023-04-26T14:27:53.508Z,18.95
2023-04-26T14:30:27.466Z,18.93
2023-04-26T14:33:00.529Z,18.91
2023-04-26T14:35:33.867Z,18.85
2023-04-26T14:38:07.044Z,18.80
2023-04-26T14:40:41.102Z,18.75
2023-04-26T14:43:13.894Z,18.68
2023-04-26T14:45:46.896Z,18.61
2023-04-26T14:48:20.018Z,18.60
2023-04-26T14:51:01.486Z,18.62
2023-04-26T14:53:35.135Z,18.66
2023-04-26T14:56:08.694Z,18.79
2023-04-26T14:58:42.097Z,18.91
2023-04-26T15:01:15.117Z,18.91
2023-04-26T15:03:48.523Z,18.80
2023-04-26T15:06:22.027Z,18.67
2023-04-26T15:08:55.325Z,18.51
2023-04-26T15:11:28.302Z,18.34
2023-04-26T15:14:01.401Z,18.19
2023-04-26T15:16:35.264Z,18.06
2023-04-26T15:19:08.345Z,17.96
2023-04-26T15:21:41.589Z,17.88
2023-04-26T15:24:14.460Z,17.81
2023-04-26T15:26:47.560Z,17.78
2023-04-26T15:29:20.759Z,17.71
2023-04-26T15:31:53.768Z,17.66
2023-04-26T15:34:27.645Z,17.60
2023-04-26T15:37:02.224Z,17.53
2023-04-26T15:39:35.090Z,17.45
2023-04-26T15:42:08.390Z,17.35
2023-04-26T15:44:42.127Z,17.26
2023-04-26T15:47:15.164Z,17.15
2023-04-26T15:49:48.415Z,17.07
2023-04-26T15:52:21.409Z,16.99
2023-04-26T15:54:54.363Z,16.91
2023-04-26T15:57:27.607Z,16.81
2023-04-26T16:00:01.075Z,16.72
2023-04-26T16:02:37.053Z,16.63
2023-04-26T16:05:11.291Z,16.55
2023-04-26T16:07:44.092Z,16.46
2023-04-26T16:10:17.679Z,16.38
2023-04-26T16:12:50.700Z,16.29
2023-04-26T16:15:23.846Z,16.20
2023-04-26T16:17:56.566Z,16.12
2023-04-26T16:20:29.838Z,16.05
2023-04-26T16:23:03.162Z,15.99
2023-04-26T16:25:36.109Z,15.92
2023-04-26T16:28:11.356Z,15.86
2023-04-26T16:30:44.827Z,15.78
2023-04-26T16:33:19.799Z,15.72
2023-04-26T16:35:56.584Z,15.68
2023-04-26T16:38:29.357Z,15.63
2023-04-26T16:41:02.849Z,15.57
2023-04-26T16:43:36.826Z,15.52
2023-04-26T16:46:10.563Z,15.47
2023-04-26T16:48:44.174Z,15.41
2023-04-26T16:51:16.946Z,15.35
2023-04-26T16:53:49.919Z,15.30
2023-04-26T16:56:22.854Z,15.25
2023-04-26T16:58:56.021Z,15.21
2023-04-26T17:01:29.409Z,15.15
2023-04-26T17:04:02.879Z,15.10
2023-04-26T17:06:35.862Z,15.03
2023-04-26T17:09:08.935Z,14.95
2023-04-26T17:11:43.762Z,14.86
2023-04-26T17:14:16.818Z,14.78
2023-04-26T17:16:49.726Z,14.72
2023-04-26T17:19:23.142Z,14.67
2023-04-26T17:21:56.163Z,14.61
2023-04-26T17:24:29.212Z,14.56
2023-04-26T17:27:03.161Z,14.49
2023-04-26T17:29:37.120Z,14.45
2023-04-26T17:32:10.108Z,14.40
2023-04-26T17:34:43.540Z,14.38
2023-04-26T17:37:16.613Z,14.34
2023-04-26T17:39:49.373Z,14.29
2023-04-26T17:42:22.621Z,14.29
2023-04-26T17:44:56.000Z,14.26
2023-04-26T17:47:30.695Z,14.24
2023-04-26T17:50:03.864Z,14.20
2023-04-26T17:52:38.408Z,14.17
2023-04-26T17:55:11.605Z,14.12
2023-04-26T17:57:44.651Z,14.06
2023-04-26T18:00:18.908Z,14.01
2023-04-26T18:02:52.287Z,13.96
2023-04-26T18:05:25.766Z,13.89
2023-04-26T18:07:59.182Z,13.87
2023-04-26T18:10:34.010Z,13.83
2023-04-26T18:13:07.846Z,13.80
2023-04-26T18:15:41.133Z,13.76
2023-04-26T18:18:14.101Z,13.74
2023-04-26T18:20:47.211Z,13.70
2023-04-26T18:23:20.411Z,13.65
2023-04-26T18:25:53.502Z,13.60
2023-04-26T18:28:27.065Z,13.57
2023-04-26T18:31:01.213Z,13.54
2023-04-26T18:33:34.013Z,13.52
2023-04-26T18:36:08.178Z,13.50
2023-04-26T18:38:41.302Z,13.47
2023-04-26T18:41:14.338Z,13.43
2023-04-26T18:43:47.445Z,13.37
2023-04-26T18:46:20.609Z,13.33
2023-04-26T18:48:53.517Z,13.27
2023-04-26T18:51:26.920Z,13.23
2023-04-26T18:53:59.860Z,13.21
2023-04-26T18:56:33.123Z,13.17
2023-04-26T18:59:06.042Z,13.16
2023-04-26T19:01:39.724Z,13.12
2023-04-26T19:04:13.009Z,13.09
2023-04-26T19:06:47.207Z,13.06
2023-04-26T19:09:20.027Z,13.05
2023-04-26T19:11:53.098Z,13.04
2023-04-26T19:14:26.568Z,13.02
2023-04-26T19:17:02.540Z,13.01
2023-04-26T19:19:35.298Z,12.98
2023-04-26T19:22:08.425Z,12.94
2023-04-26T19:24:41.610Z,12.90
2023-04-26T19:27:14.689Z,12.85
2023-04-26T19:29:47.634Z,12.82
2023-04-26T19:32:22.257Z,12.81
2023-04-26T19:34:55.276Z,12.80
2023-04-26T19:37:28.328Z,12.77
2023-04-26T19:40:01.242Z,12.74
2023-04-26T19:42:34.542Z,12.71
2023-04-26T19:45:08.468Z,12.69
2023-04-26T19:47:43.392Z,12.65
2023-04-26T19:50:16.568Z,12.64
2023-04-26T19:52:49.614Z,12.61
2023-04-26T19:55:23.052Z,12.59
2023-04-26T19:57:56.126Z,12.57
2023-04-26T20:00:30.647Z,12.52
2023-04-26T20:03:04.006Z,12.50
2023-04-26T20:05:37.564Z,12.49
2023-04-26T20:08:10.559Z,12.48
2023-04-26T20:10:43.445Z,12.46
2023-04-26T20:13:16.108Z,12.43
2023-04-26T20:15:48.993Z,12.40
2023-04-26T20:18:22.825Z,12.40
2023-04-26T20:20:55.596Z,12.36
2023-04-26T20:23:29.562Z,12.36
2023-04-26T20:26:03.464Z,12.35
2023-04-26T20:28:38.079Z,12.35
2023-04-26T20:31:10.344Z,12.32
2023-04-26T20:33:43.420Z,12.29
2023-04-26T20:36:16.112Z,12.24
2023-04-26T20:38:49.177Z,12.22
2023-04-26T20:41:22.057Z,12.21
2023-04-26T20:43:55.368Z,12.19
2023-04-26T20:46:28.489Z,12.18
2023-04-26T20:49:01.603Z,12.15
2023-04-26T20:51:35.316Z,12.12
2023-04-26T20:54:08.133Z,12.10
2023-04-26T20:56:41.275Z,12.10
2023-04-26T20:59:14.383Z,12.09
2023-04-26T21:01:47.200Z,12.06
2023-04-26T21:04:20.164Z,12.03
2023-04-26T21:06:53.640Z,12.00
2023-04-26T21:09:26.488Z,11.98
2023-04-26T21:11:59.342Z,11.96
2023-04-26T21:14:32.510Z,11.92
2023-04-26T21:17:06.069Z,11.90
2023-04-26T21:19:39.734Z,11.86
2023-04-26T21:22:13.137Z,11.81
2023-04-26T21:24:46.415Z,11.77
2023-04-26T21:27:19.445Z,11.74
2023-04-26T21:29:52.634Z,11.73
2023-04-26T21:32:25.798Z,11.70
2023-04-26T21:34:58.882Z,11.68
2023-04-26T21:37:32.069Z,11.65
2023-04-26T21:40:05.984Z,11.64
2023-04-26T21:42:39.602Z,11.62
2023-04-26T21:45:13.545Z,11.63
2023-04-26T21:47:47.087Z,11.61
2023-04-26T21:50:20.226Z,11.59
2023-04-26T21:52:53.443Z,11.55
2023-04-26T21:55:27.223Z,11.52
2023-04-26T21:58:00.487Z,11.52
2023-04-26T22:00:33.980Z,11.51
2023-04-26T22:03:07.229Z,11.51
2023-04-26T22:05:40.523Z,11.51
2023-04-26T22:08:13.757Z,11.51
2023-04-26T22:10:47.431Z,11.47
2023-04-26T22:13:20.671Z,11.45
2023-04-26T22:15:53.891Z,11.44
2023-04-26T22:18:27.364Z,11.43
2023-04-26T22:21:00.677Z,11.43
2023-04-26T22:23:35.059Z,11.42
2023-04-26T22:26:08.241Z,11.42
2023-04-26T22:28:41.872Z,11.41
2023-04-26T22:31:15.068Z,11.39
2023-04-26T22:33:48.276Z,11.36
2023-04-26T22:36:22.601Z,11.35
2023-04-26T22:38:55.807Z,11.36
2023-04-26T22:41:29.040Z,11.38
2023-04-26T22:44:02.157Z,11.39
2023-04-26T22:46:35.649Z,11.40
2023-04-26T22:49:09.005Z,11.41
2023-04-26T22:51:45.951Z,11.42
2023-04-26T22:54:17.151Z,11.45
2023-04-26T22:56:50.868Z,11.49
2023-04-26T22:59:24.118Z,11.49
2023-04-26T23:01:58.912Z,11.51
2023-04-26T23:04:32.197Z,11.51
2023-04-26T23:07:05.388Z,11.52
2023-04-26T23:09:38.629Z,11.53
2023-04-26T23:12:11.765Z,11.55
2023-04-26T23:14:45.013Z,11.58
2023-04-26T23:17:19.945Z,11.61
2023-04-26T23:19:53.810Z,11.65
2023-04-26T23:22:28.989Z,11.66
2023-04-26T23:25:02.391Z,11.67
2023-04-26T23:27:35.987Z,11.69
2023-04-26T23:30:10.325Z,11.70
2023-04-26T23:32:45.120Z,11.71
2023-04-26T23:35:18.311Z,11.75
2023-04-26T23:37:52.939Z,11.77
2023-04-26T23:40:25.967Z,11.79
2023-04-26T23:42:59.417Z,11.81
2023-04-26T23:45:32.584Z,11.84
2023-04-26T23:48:06.489Z,11.87
2023-04-26T23:50:39.671Z,11.92
2023-04-26T23:53:13.249Z,11.96
2023-04-26T23:55:46.478Z,12.00
2023-04-26T23:58:20.084Z,12.03
